sensor_id;sensor_type;location;lat;lon;timestamp;pressure;altitude;pressure_sealevel;temperature;humidity
56334;BME280;42240;53.626;55.886;2023-02-12T00:00:08;79062.94;;;-145.10;100.00
56334;BME280;42240;53.626;55.886;2023-02-12T00:01:47;79060.94;;;-145.10;100.00
56334;BME280;42240;53.626;55.886;2023-02-12T00:03:20;79062.94;;;-145.10;100.00
56334;BME280;42240;53.626;55.886;2023-02-12T00:04:53;79066.88;;;-145.10;100.00
56334;BME280;42240;53.626;55.886;2023-02-12T00:06:26;79057.00;;;-145.10;100.00
56334;BME280;42240;53.626;55.886;2023-02-12T00:07:59;79068.84;;;-145.10;100.00
56334;BME280;42240;53.626;55.886;2023-02-12T00:09:32;79064.91;;;-145.10;100.00
56334;BME280;42240;53.626;55.886;2023-02-12T00:11:14;79072.81;;;-145.10;100.00
56334;BME280;42240;53.626;55.886;2023-02-12T00:12:47;79068.84;;;-145.10;100.00
56334;BME280;42240;53.626;55.886;2023-02-12T00:14:20;79060.94;;;-145.10;100.00
56334;BME280;42240;53.626;55.886;2023-02-12T00:15:53;79060.94;;;-145.10;100.00
56334;BME280;42240;53.626;55.886;2023-02-12T00:17:27;79072.81;;;-145.10;100.00
56334;BME280;42240;53.626;55.886;2023-02-12T00:19:00;79072.81;;;-145.10;100.00
56334;BME280;42240;53.626;55.886;2023-02-12T00:20:33;79124.25;;;-145.10;100.00
56334;BME280;42240;53.626;55.886;2023-02-12T00:22:06;79070.84;;;-145.10;100.00
56334;BME280;42240;53.626;55.886;2023-02-12T00:23:40;79064.91;;;-145.10;100.00
56334;BME280;42240;53.626;55.886;2023-02-12T00:25:13;79057.00;;;-145.10;100.00
56334;BME280;42240;53.626;55.886;2023-02-12T00:26:46;79058.97;;;-145.10;100.00
56334;BME280;42240;53.626;55.886;2023-02-12T00:28:20;79058.97;;;-145.10;100.00
56334;BME280;42240;53.626;55.886;2023-02-12T00:29:53;79060.94;;;-145.10;100.00
56334;BME280;42240;53.626;55.886;2023-02-12T00:31:28;79062.94;;;-145.10;100.00
56334;BME280;42240;53.626;55.886;2023-02-12T00:33:01;79068.84;;;-145.10;100.00
56334;BME280;42240;53.626;55.886;2023-02-12T00:34:34;79084.69;;;-145.10;100.00
56334;BME280;42240;53.626;55.886;2023-02-12T00:36:08;79068.84;;;-145.10;100.00
56334;BME280;42240;53.626;55.886;2023-02-12T00:37:42;79072.81;;;-145.10;100.00
56334;BME280;42240;53.626;55.886;2023-02-12T00:39:15;79076.78;;;-145.10;100.00
56334;BME280;42240;53.626;55.886;2023-02-12T00:40:48;79076.78;;;-145.10;100.00
56334;BME280;42240;53.626;55.886;2023-02-12T00:42:21;79078.75;;;-145.10;100.00
56334;BME280;42240;53.626;55.886;2023-02-12T00:43:55;79078.75;;;-145.10;100.00
56334;BME280;42240;53.626;55.886;2023-02-12T00:45:28;79080.72;;;-145.10;100.00
56334;BME280;42240;53.626;55.886;2023-02-12T00:47:04;79080.72;;;-145.10;100.00
56334;BME280;42240;53.626;55.886;2023-02-12T00:48:37;79098.53;;;-145.10;100.00
56334;BME280;42240;53.626;55.886;2023-02-12T00:50:11;79155.91;;;-145.10;100.00
56334;BME280;42240;53.626;55.886;2023-02-12T00:51:45;79096.56;;;-145.10;100.00
56334;BME280;42240;53.626;55.886;2023-02-12T00:53:18;79092.59;;;-145.10;100.00
56334;BME280;42240;53.626;55.886;2023-02-12T00:54:51;79112.38;;;-145.10;100.00
56334;BME280;42240;53.626;55.886;2023-02-12T00:56:25;79116.34;;;-145.10;100.00
56334;BME280;42240;53.626;55.886;2023-02-12T00:57:58;79177.69;;;-145.10;100.00
56334;BME280;42240;53.626;55.886;2023-02-12T00:59:33;79112.38;;;-145.10;100.00
56334;BME280;42240;53.626;55.886;2023-02-12T01:01:09;79112.38;;;-145.10;100.00
56334;BME280;42240;53.626;55.886;2023-02-12T01:02:43;79116.34;;;-145.10;100.00
56334;BME280;42240;53.626;55.886;2023-02-12T01:04:17;79108.44;;;-145.10;100.00
56334;BME280;42240;53.626;55.886;2023-02-12T01:05:52;79128.22;;;-145.10;100.00
56334;BME280;42240;53.626;55.886;2023-02-12T01:07:25;79118.31;;;-145.10;100.00
56334;BME280;42240;53.626;55.886;2023-02-12T01:09:00;79120.31;;;-145.10;100.00
56334;BME280;42240;53.626;55.886;2023-02-12T01:10:33;79118.31;;;-145.10;100.00
56334;BME280;42240;53.626;55.886;2023-02-12T01:12:07;79128.22;;;-145.10;100.00
56334;BME280;42240;53.626;55.886;2023-02-12T01:13:40;79151.97;;;-145.10;100.00
56334;BME280;42240;53.626;55.886;2023-02-12T01:15:14;79128.22;;;-145.10;100.00
56334;BME280;42240;53.626;55.886;2023-02-12T01:16:47;79132.19;;;-145.10;100.00
56334;BME280;42240;53.626;55.886;2023-02-12T01:18:23;79136.13;;;-145.10;100.00
56334;BME280;42240;53.626;55.886;2023-02-12T01:19:57;79128.22;;;-145.10;100.00
56334;BME280;42240;53.626;55.886;2023-02-12T01:21:33;79136.13;;;-145.10;100.00
56334;BME280;42240;53.626;55.886;2023-02-12T01:23:06;79146.03;;;-145.10;100.00
56334;BME280;42240;53.626;55.886;2023-02-12T01:24:40;79146.03;;;-145.10;100.00
56334;BME280;42240;53.626;55.886;2023-02-12T01:26:15;79163.84;;;-145.10;100.00
56334;BME280;42240;53.626;55.886;2023-02-12T01:27:52;79155.91;;;-145.10;100.00
56334;BME280;42240;53.626;55.886;2023-02-12T01:29:25;79155.91;;;-145.10;100.00
56334;BME280;42240;53.626;55.886;2023-02-12T01:30:58;79233.09;;;-145.10;100.00
56334;BME280;42240;53.626;55.886;2023-02-12T01:32:33;79171.75;;;-145.10;100.00
56334;BME280;42240;53.626;55.886;2023-02-12T01:34:06;79173.72;;;-145.10;100.00
56334;BME280;42240;53.626;55.886;2023-02-12T01:35:40;79163.84;;;-145.10;100.00
56334;BME280;42240;53.626;55.886;2023-02-12T01:37:14;79159.88;;;-145.10;100.00
56334;BME280;42240;53.626;55.886;2023-02-12T01:38:48;79159.88;;;-145.10;100.00
56334;BME280;42240;53.626;55.886;2023-02-12T01:40:22;79155.91;;;-145.10;100.00
56334;BME280;42240;53.626;55.886;2023-02-12T01:41:55;79167.78;;;-145.10;100.00
56334;BME280;42240;53.626;55.886;2023-02-12T01:43:28;79171.75;;;-145.10;100.00
56334;BME280;42240;53.626;55.886;2023-02-12T01:46:46;79171.75;;;-145.10;100.00
56334;BME280;42240;53.626;55.886;2023-02-12T01:48:22;79167.78;;;-145.10;100.00
56334;BME280;42240;53.626;55.886;2023-02-12T01:49:58;79167.78;;;-145.10;100.00
56334;BME280;42240;53.626;55.886;2023-02-12T01:51:31;79175.72;;;-145.10;100.00
56334;BME280;42240;53.626;55.886;2023-02-12T01:53:05;79169.78;;;-145.10;100.00
56334;BME280;42240;53.626;55.886;2023-02-12T01:54:40;79175.72;;;-145.10;100.00
56334;BME280;42240;53.626;55.886;2023-02-12T01:56:14;79254.84;;;-145.10;100.00
56334;BME280;42240;53.626;55.886;2023-02-12T01:57:48;79175.72;;;-145.10;100.00
56334;BME280;42240;53.626;55.886;2023-02-12T01:59:21;79187.56;;;-145.10;100.00
56334;BME280;42240;53.626;55.886;2023-02-12T02:00:55;79197.47;;;-145.10;100.00
56334;BME280;42240;53.626;55.886;2023-02-12T02:02:30;79189.56;;;-145.10;100.00
56334;BME280;42240;53.626;55.886;2023-02-12T02:04:12;79195.50;;;-145.10;100.00
56334;BME280;42240;53.626;55.886;2023-02-12T02:05:58;79189.56;;;-145.10;100.00
56334;BME280;42240;53.626;55.886;2023-02-12T02:07:32;79181.63;;;-145.10;100.00
56334;BME280;42240;53.626;55.886;2023-02-12T02:09:05;79191.53;;;-145.10;100.00
56334;BME280;42240;53.626;55.886;2023-02-12T02:10:39;79199.44;;;-145.10;100.00
56334;BME280;42240;53.626;55.886;2023-02-12T02:12:12;79189.56;;;-145.10;100.00
56334;BME280;42240;53.626;55.886;2023-02-12T02:14:03;79187.56;;;-145.10;100.00
56334;BME280;42240;53.626;55.886;2023-02-12T02:15:57;79203.41;;;-145.10;100.00
56334;BME280;42240;53.626;55.886;2023-02-12T02:17:43;79199.44;;;-145.10;100.00
56334;BME280;42240;53.626;55.886;2023-02-12T02:21:34;79207.38;;;-145.10;100.00
56334;BME280;42240;53.626;55.886;2023-02-12T02:26:53;79207.38;;;-145.10;100.00
56334;BME280;42240;53.626;55.886;2023-02-12T02:28:59;79209.34;;;-145.10;100.00
56334;BME280;42240;53.626;55.886;2023-02-12T02:30:57;79203.41;;;-145.10;100.00
56334;BME280;42240;53.626;55.886;2023-02-12T02:34:28;79229.13;;;-145.10;100.00
56334;BME280;42240;53.626;55.886;2023-02-12T02:36:21;79219.25;;;-145.10;100.00
56334;BME280;42240;53.626;55.886;2023-02-12T02:38:08;79215.28;;;-145.10;100.00
56334;BME280;42240;53.626;55.886;2023-02-12T02:39:51;79219.25;;;-145.10;100.00
56334;BME280;42240;53.626;55.886;2023-02-12T02:41:32;79223.19;;;-145.10;100.00
56334;BME280;42240;53.626;55.886;2023-02-12T02:43:22;79219.25;;;-145.10;100.00
56334;BME280;42240;53.626;55.886;2023-02-12T02:45:07;79213.31;;;-145.10;100.00
56334;BME280;42240;53.626;55.886;2023-02-12T02:46:46;79215.28;;;-145.10;100.00
56334;BME280;42240;53.626;55.886;2023-02-12T02:48:31;79369.63;;;-145.10;100.00
56334;BME280;42240;53.626;55.886;2023-02-12T02:50:10;79207.38;;;-145.10;100.00
56334;BME280;42240;53.626;55.886;2023-02-12T02:51:48;79203.41;;;-145.10;100.00
56334;BME280;42240;53.626;55.886;2023-02-12T02:53:29;79207.38;;;-145.10;100.00
56334;BME280;42240;53.626;55.886;2023-02-12T02:55:06;79207.38;;;-145.10;100.00
56334;BME280;42240;53.626;55.886;2023-02-12T02:56:42;79211.31;;;-145.10;100.00
56334;BME280;42240;53.626;55.886;2023-02-12T02:58:22;79215.28;;;-145.10;100.00
56334;BME280;42240;53.626;55.886;2023-02-12T03:01:50;79341.91;;;-145.10;100.00
56334;BME280;42240;53.626;55.886;2023-02-12T03:03:32;79199.44;;;-145.10;100.00
56334;BME280;42240;53.626;55.886;2023-02-12T03:05:22;79207.38;;;-145.10;100.00
56334;BME280;42240;53.626;55.886;2023-02-12T03:07:14;79191.53;;;-145.10;100.00
56334;BME280;42240;53.626;55.886;2023-02-12T03:09:00;79189.56;;;-145.10;100.00
56334;BME280;42240;53.626;55.886;2023-02-12T03:10:46;79191.53;;;-145.10;100.00
56334;BME280;42240;53.626;55.886;2023-02-12T03:12:28;79187.56;;;-145.10;100.00
56334;BME280;42240;53.626;55.886;2023-02-12T03:14:26;79195.50;;;-145.10;100.00
56334;BME280;42240;53.626;55.886;2023-02-12T03:16:29;79197.47;;;-145.10;100.00
56334;BME280;42240;53.626;55.886;2023-02-12T03:18:07;79197.47;;;-145.10;100.00
56334;BME280;42240;53.626;55.886;2023-02-12T03:20:00;79203.41;;;-145.10;100.00
56334;BME280;42240;53.626;55.886;2023-02-12T03:21:49;79207.38;;;-145.10;100.00
56334;BME280;42240;53.626;55.886;2023-02-12T03:23:49;79217.25;;;-145.10;100.00
56334;BME280;42240;53.626;55.886;2023-02-12T03:25:34;79211.31;;;-145.10;100.00
56334;BME280;42240;53.626;55.886;2023-02-12T03:27:26;79211.31;;;-145.10;100.00
56334;BME280;42240;53.626;55.886;2023-02-12T03:29:00;79215.28;;;-145.10;100.00
56334;BME280;42240;53.626;55.886;2023-02-12T03:34:45;79294.44;;;-145.10;100.00
56334;BME280;42240;53.626;55.886;2023-02-12T03:38:16;79213.31;;;-145.10;100.00
56334;BME280;42240;53.626;55.886;2023-02-12T03:41:34;79345.88;;;-145.10;100.00
56334;BME280;42240;53.626;55.886;2023-02-12T03:43:28;79209.34;;;-145.10;100.00
56334;BME280;42240;53.626;55.886;2023-02-12T03:49:03;79207.38;;;-145.10;100.00
56334;BME280;42240;53.626;55.886;2023-02-12T03:52:36;79199.44;;;-145.10;100.00
56334;BME280;42240;53.626;55.886;2023-02-12T03:54:12;79205.38;;;-145.10;100.00
56334;BME280;42240;53.626;55.886;2023-02-12T03:55:50;79205.38;;;-145.10;100.00
56334;BME280;42240;53.626;55.886;2023-02-12T03:57:28;79195.50;;;-145.10;100.00
56334;BME280;42240;53.626;55.886;2023-02-12T03:59:04;79191.53;;;-145.10;100.00
56334;BME280;42240;53.626;55.886;2023-02-12T04:00:38;79197.47;;;-145.10;100.00
56334;BME280;42240;53.626;55.886;2023-02-12T04:02:13;79191.53;;;-145.10;100.00
56334;BME280;42240;53.626;55.886;2023-02-12T04:03:47;79193.50;;;-145.10;100.00
56334;BME280;42240;53.626;55.886;2023-02-12T04:05:25;79241.00;;;-145.10;100.00
56334;BME280;42240;53.626;55.886;2023-02-12T04:06:58;79183.63;;;-145.10;100.00
56334;BME280;42240;53.626;55.886;2023-02-12T04:08:32;79179.66;;;-145.10;100.00
56334;BME280;42240;53.626;55.886;2023-02-12T04:10:07;79179.66;;;-145.10;100.00
56334;BME280;42240;53.626;55.886;2023-02-12T04:14:07;79193.50;;;-145.10;100.00
56334;BME280;42240;53.626;55.886;2023-02-12T04:18:18;79183.63;;;-145.10;100.00
56334;BME280;42240;53.626;55.886;2023-02-12T04:26:09;79179.66;;;-145.10;100.00
56334;BME280;42240;53.626;55.886;2023-02-12T04:28:51;79171.75;;;-145.10;100.00
56334;BME280;42240;53.626;55.886;2023-02-12T04:30:03;79167.78;;;-145.10;100.00
56334;BME280;42240;53.626;55.886;2023-02-12T04:33:53;79217.25;;;-145.10;100.00
56334;BME280;42240;53.626;55.886;2023-02-12T04:35:31;79175.72;;;-145.10;100.00
56334;BME280;42240;53.626;55.886;2023-02-12T04:37:14;79199.44;;;-145.10;100.00
56334;BME280;42240;53.626;55.886;2023-02-12T04:38:53;79187.56;;;-145.10;100.00
56334;BME280;42240;53.626;55.886;2023-02-12T04:40:27;79167.78;;;-145.10;100.00
56334;BME280;42240;53.626;55.886;2023-02-12T04:42:01;79173.72;;;-145.10;100.00
56334;BME280;42240;53.626;55.886;2023-02-12T04:43:36;79183.63;;;-145.10;100.00
56334;BME280;42240;53.626;55.886;2023-02-12T04:45:17;79181.63;;;-145.10;100.00
56334;BME280;42240;53.626;55.886;2023-02-12T04:46:52;79177.69;;;-145.10;100.00
56334;BME280;42240;53.626;55.886;2023-02-12T04:48:25;79177.69;;;-145.10;100.00
56334;BME280;42240;53.626;55.886;2023-02-12T04:49:59;79177.69;;;-145.10;100.00
56334;BME280;42240;53.626;55.886;2023-02-12T04:51:31;79183.63;;;-145.10;100.00
56334;BME280;42240;53.626;55.886;2023-02-12T04:53:06;79270.69;;;-145.10;100.00
56334;BME280;42240;53.626;55.886;2023-02-12T04:54:40;79195.50;;;-145.10;100.00
56334;BME280;42240;53.626;55.886;2023-02-12T04:56:13;79173.72;;;-145.10;100.00
56334;BME280;42240;53.626;55.886;2023-02-12T04:57:46;79239.03;;;-145.10;100.00
56334;BME280;42240;53.626;55.886;2023-02-12T04:59:19;79179.66;;;-145.10;100.00
56334;BME280;42240;53.626;55.886;2023-02-12T05:00:52;79187.56;;;-145.10;100.00
56334;BME280;42240;53.626;55.886;2023-02-12T05:02:25;79175.72;;;-145.10;100.00
56334;BME280;42240;53.626;55.886;2023-02-12T05:03:58;79187.56;;;-145.10;100.00
56334;BME280;42240;53.626;55.886;2023-02-12T05:05:32;79219.25;;;-145.10;100.00
56334;BME280;42240;53.626;55.886;2023-02-12T05:07:05;79175.72;;;-145.10;100.00
56334;BME280;42240;53.626;55.886;2023-02-12T05:08:39;79173.72;;;-145.10;100.00
56334;BME280;42240;53.626;55.886;2023-02-12T05:10:12;79177.69;;;-145.10;100.00
56334;BME280;42240;53.626;55.886;2023-02-12T05:11:45;79189.56;;;-145.10;100.00
56334;BME280;42240;53.626;55.886;2023-02-12T05:13:18;79205.38;;;-145.10;100.00
56334;BME280;42240;53.626;55.886;2023-02-12T05:14:51;79195.50;;;-145.10;100.00
56334;BME280;42240;53.626;55.886;2023-02-12T05:16:24;79195.50;;;-145.10;100.00
56334;BME280;42240;53.626;55.886;2023-02-12T05:17:57;79211.31;;;-145.10;100.00
56334;BME280;42240;53.626;55.886;2023-02-12T05:19:30;79207.38;;;-145.10;100.00
56334;BME280;42240;53.626;55.886;2023-02-12T05:21:03;79205.38;;;-145.10;100.00
56334;BME280;42240;53.626;55.886;2023-02-12T05:22:36;79213.31;;;-145.10;100.00
56334;BME280;42240;53.626;55.886;2023-02-12T05:24:10;79193.50;;;-145.10;100.00
56334;BME280;42240;53.626;55.886;2023-02-12T05:25:43;79213.31;;;-145.10;100.00
56334;BME280;42240;53.626;55.886;2023-02-12T05:27:15;79205.38;;;-145.10;100.00
56334;BME280;42240;53.626;55.886;2023-02-12T05:28:48;79225.16;;;-145.10;100.00
56334;BME280;42240;53.626;55.886;2023-02-12T05:30:21;79211.31;;;-145.10;100.00
56334;BME280;42240;53.626;55.886;2023-02-12T05:31:54;79195.50;;;-145.10;100.00
56334;BME280;42240;53.626;55.886;2023-02-12T05:33:28;79195.50;;;-145.10;100.00
56334;BME280;42240;53.626;55.886;2023-02-12T05:35:01;79215.28;;;-145.10;100.00
56334;BME280;42240;53.626;55.886;2023-02-12T05:36:33;79215.28;;;-145.10;100.00
56334;BME280;42240;53.626;55.886;2023-02-12T05:38:07;79213.31;;;-145.10;100.00
56334;BME280;42240;53.626;55.886;2023-02-12T05:39:40;79286.50;;;-145.10;100.00
56334;BME280;42240;53.626;55.886;2023-02-12T05:41:15;79219.25;;;-145.10;100.00
56334;BME280;42240;53.626;55.886;2023-02-12T05:42:49;79201.44;;;-145.10;100.00
56334;BME280;42240;53.626;55.886;2023-02-12T05:44:22;79197.47;;;-145.10;100.00
56334;BME280;42240;53.626;55.886;2023-02-12T05:45:58;79209.34;;;-145.10;100.00
56334;BME280;42240;53.626;55.886;2023-02-12T05:47:31;79207.38;;;-145.10;100.00
56334;BME280;42240;53.626;55.886;2023-02-12T05:49:04;79175.72;;;-145.10;100.00
56334;BME280;42240;53.626;55.886;2023-02-12T05:50:37;79153.94;;;-145.10;100.00
56334;BME280;42240;53.626;55.886;2023-02-12T05:52:12;79104.47;;;-145.10;100.00
56334;BME280;42240;53.626;55.886;2023-02-12T05:53:45;79167.78;;;-145.10;100.00
56334;BME280;42240;53.626;55.886;2023-02-12T05:55:18;79047.09;;;-145.10;100.00
56334;BME280;42240;53.626;55.886;2023-02-12T05:56:51;78965.97;;;-145.10;100.00
56334;BME280;42240;53.626;55.886;2023-02-12T05:58:24;78999.59;;;-145.10;100.00
56334;BME280;42240;53.626;55.886;2023-02-12T05:59:57;78946.19;;;-145.10;99.31
56334;BME280;42240;53.626;55.886;2023-02-12T06:01:32;78918.50;;;-145.10;96.59
56334;BME280;42240;53.626;55.886;2023-02-12T06:03:06;78942.22;;;-145.10;94.89
56334;BME280;42240;53.626;55.886;2023-02-12T06:04:39;78894.75;;;-145.10;93.64
56334;BME280;42240;53.626;55.886;2023-02-12T06:06:12;78874.97;;;-145.10;91.42
56334;BME280;42240;53.626;55.886;2023-02-12T06:07:45;78841.31;;;-145.10;90.95
56334;BME280;42240;53.626;55.886;2023-02-12T06:09:18;78847.25;;;-145.10;88.37
56334;BME280;42240;53.626;55.886;2023-02-12T06:10:52;78847.25;;;-145.10;87.27
56334;BME280;42240;53.626;55.886;2023-02-12T06:12:24;78926.41;;;-145.10;84.82
56334;BME280;42240;53.626;55.886;2023-02-12T06:14:01;78882.88;;;-145.10;86.22
56334;BME280;42240;53.626;55.886;2023-02-12T06:15:37;78851.22;;;-145.10;86.52
56334;BME280;42240;53.626;55.886;2023-02-12T06:17:10;78871.00;;;-145.10;86.90
56334;BME280;42240;53.626;55.886;2023-02-12T06:18:43;78839.34;;;-145.10;85.69
56334;BME280;42240;53.626;55.886;2023-02-12T06:20:17;78783.94;;;-145.10;80.34
56334;BME280;42240;53.626;55.886;2023-02-12T06:21:50;78708.75;;;-145.10;75.97
56334;BME280;42240;53.626;55.886;2023-02-12T06:23:23;78712.72;;;-145.10;71.70
56334;BME280;42240;53.626;55.886;2023-02-12T06:24:57;78690.97;;;-145.10;70.35
56334;BME280;42240;53.626;55.886;2023-02-12T06:26:29;78679.09;;;-145.10;68.37
56334;BME280;42240;53.626;55.886;2023-02-12T06:28:03;78645.47;;;-145.10;65.00
56334;BME280;42240;53.626;55.886;2023-02-12T06:29:36;78671.19;;;-145.10;62.78
56334;BME280;42240;53.626;55.886;2023-02-12T06:32:51;78580.16;;;-145.10;60.88
56334;BME280;42240;53.626;55.886;2023-02-12T06:34:24;78688.97;;;-145.10;59.92
56334;BME280;42240;53.626;55.886;2023-02-12T06:35:57;78754.28;;;-145.10;60.89
56334;BME280;42240;53.626;55.886;2023-02-12T06:37:34;78728.56;;;-145.10;62.29
56334;BME280;42240;53.626;55.886;2023-02-12T06:39:09;78783.94;;;-145.10;62.54
56334;BME280;42240;53.626;55.886;2023-02-12T06:40:43;78821.53;;;-145.10;62.52
56334;BME280;42240;53.626;55.886;2023-02-12T06:42:16;78789.88;;;-145.10;65.11
56334;BME280;42240;53.626;55.886;2023-02-12T06:43:49;78843.31;;;-145.10;64.79
56334;BME280;42240;53.626;55.886;2023-02-12T06:45:22;78819.56;;;-145.10;67.03
56334;BME280;42240;53.626;55.886;2023-02-12T06:46:55;78704.81;;;-145.10;65.32
56334;BME280;42240;53.626;55.886;2023-02-12T06:48:31;78692.94;;;-145.10;62.26
56334;BME280;42240;53.626;55.886;2023-02-12T06:50:04;78607.88;;;-145.10;62.36
56334;BME280;42240;53.626;55.886;2023-02-12T06:51:37;78554.44;;;-145.10;61.13
56334;BME280;42240;53.626;55.886;2023-02-12T06:53:13;78594.03;;;-145.10;58.20
56334;BME280;42240;53.626;55.886;2023-02-12T06:54:46;78578.19;;;-145.10;58.24
56334;BME280;42240;53.626;55.886;2023-02-12T06:56:21;78574.22;;;-145.10;56.49
56334;BME280;42240;53.626;55.886;2023-02-12T06:57:54;78617.75;;;-145.10;56.71
56334;BME280;42240;53.626;55.886;2023-02-12T06:59:27;78681.06;;;-145.10;55.98
56334;BME280;42240;53.626;55.886;2023-02-12T07:01:14;78673.16;;;-145.10;58.54
56334;BME280;42240;53.626;55.886;2023-02-12T07:02:53;78712.72;;;-145.10;58.31
56334;BME280;42240;53.626;55.886;2023-02-12T07:04:27;78813.63;;;-145.10;58.89
56334;BME280;42240;53.626;55.886;2023-02-12T07:06:02;78724.59;;;-145.10;60.13
56334;BME280;42240;53.626;55.886;2023-02-12T07:07:35;78791.88;;;-145.10;61.26
56334;BME280;42240;53.626;55.886;2023-02-12T07:09:08;78847.25;;;-145.10;62.13
56334;BME280;42240;53.626;55.886;2023-02-12T07:10:41;78827.47;;;-145.10;61.15
56334;BME280;42240;53.626;55.886;2023-02-12T07:12:14;78734.50;;;-145.10;63.33
56334;BME280;42240;53.626;55.886;2023-02-12T07:13:47;78720.63;;;-145.10;61.74
56334;BME280;42240;53.626;55.886;2023-02-12T07:15:20;78774.06;;;-145.10;60.74
56334;BME280;42240;53.626;55.886;2023-02-12T07:16:54;78839.34;;;-145.10;62.64
56334;BME280;42240;53.626;55.886;2023-02-12T07:18:28;78740.41;;;-145.10;61.28
56334;BME280;42240;53.626;55.886;2023-02-12T07:20:02;78791.88;;;-145.10;60.67
56334;BME280;42240;53.626;55.886;2023-02-12T07:21:35;78861.09;;;-145.10;62.02
56334;BME280;42240;53.626;55.886;2023-02-12T07:23:12;78781.97;;;-145.10;62.44
56334;BME280;42240;53.626;55.886;2023-02-12T07:24:45;78770.09;;;-145.10;62.04
56334;BME280;42240;53.626;55.886;2023-02-12T07:26:19;78797.78;;;-145.10;61.94
56334;BME280;42240;53.626;55.886;2023-02-12T07:27:53;78831.44;;;-145.10;63.01
56334;BME280;42240;53.626;55.886;2023-02-12T07:29:26;78841.31;;;-145.10;62.76
56334;BME280;42240;53.626;55.886;2023-02-12T07:31:14;78825.50;;;-145.10;64.60
56334;BME280;42240;53.626;55.886;2023-02-12T07:32:47;78865.06;;;-145.10;63.18
56334;BME280;42240;53.626;55.886;2023-02-12T07:34:20;78948.16;;;-145.10;64.99
56334;BME280;42240;53.626;55.886;2023-02-12T07:35:53;78934.31;;;-145.10;68.00
56334;BME280;42240;53.626;55.886;2023-02-12T07:37:26;78981.81;;;-145.10;69.20
56334;BME280;42240;53.626;55.886;2023-02-12T07:38:59;79005.53;;;-145.10;71.23
56334;BME280;42240;53.626;55.886;2023-02-12T07:40:33;79051.06;;;-145.10;71.59
56334;BME280;42240;53.626;55.886;2023-02-12T07:42:06;79066.88;;;-145.10;76.61
56334;BME280;42240;53.626;55.886;2023-02-12T07:43:41;79072.81;;;-145.10;77.01
56334;BME280;42240;53.626;55.886;2023-02-12T07:45:14;79068.84;;;-145.10;79.86
56334;BME280;42240;53.626;55.886;2023-02-12T07:46:48;79112.38;;;-145.10;78.48
56334;BME280;42240;53.626;55.886;2023-02-12T07:48:21;79116.34;;;-145.10;78.91
56334;BME280;42240;53.626;55.886;2023-02-12T07:49:54;79092.59;;;-145.10;80.01
56334;BME280;42240;53.626;55.886;2023-02-12T07:51:27;79080.72;;;-145.10;80.38
56334;BME280;42240;53.626;55.886;2023-02-12T07:53:01;79104.47;;;-145.10;79.95
56334;BME280;42240;53.626;55.886;2023-02-12T07:54:34;79068.84;;;-145.10;81.09
56334;BME280;42240;53.626;55.886;2023-02-12T07:56:28;79064.91;;;-145.10;79.24
56334;BME280;42240;53.626;55.886;2023-02-12T07:58:04;79019.41;;;-145.10;78.80
56334;BME280;42240;53.626;55.886;2023-02-12T07:59:37;79033.25;;;-145.10;77.45
56334;BME280;42240;53.626;55.886;2023-02-12T08:01:21;79057.00;;;-145.10;78.85
56334;BME280;42240;53.626;55.886;2023-02-12T08:02:54;79080.72;;;-145.10;77.04
56334;BME280;42240;53.626;55.886;2023-02-12T08:04:27;79045.13;;;-145.10;78.79
56334;BME280;42240;53.626;55.886;2023-02-12T08:06:06;79088.66;;;-145.10;79.76
56334;BME280;42240;53.626;55.886;2023-02-12T08:07:40;79100.53;;;-145.10;79.31
56334;BME280;42240;53.626;55.886;2023-02-12T08:09:16;79233.09;;;-145.10;79.79
56334;BME280;42240;53.626;55.886;2023-02-12T08:10:49;79064.91;;;-145.10;80.03
56334;BME280;42240;53.626;55.886;2023-02-12T08:12:22;79051.06;;;-145.10;79.75
56334;BME280;42240;53.626;55.886;2023-02-12T08:13:56;79116.34;;;-145.10;79.04
56334;BME280;42240;53.626;55.886;2023-02-12T08:15:29;79037.19;;;-145.10;78.89
56334;BME280;42240;53.626;55.886;2023-02-12T08:17:02;78995.66;;;-145.10;78.67
56334;BME280;42240;53.626;55.886;2023-02-12T08:18:36;79041.16;;;-145.10;76.58
56334;BME280;42240;53.626;55.886;2023-02-12T08:20:09;79003.56;;;-145.10;76.55
56334;BME280;42240;53.626;55.886;2023-02-12T08:21:42;78950.16;;;-145.10;76.52
56334;BME280;42240;53.626;55.886;2023-02-12T08:23:15;78928.38;;;-145.10;73.28
56334;BME280;42240;53.626;55.886;2023-02-12T08:24:48;78926.41;;;-145.10;71.93
56334;BME280;42240;53.626;55.886;2023-02-12T08:27:55;78924.41;;;-145.10;73.54
56334;BME280;42240;53.626;55.886;2023-02-12T08:29:28;78886.81;;;-145.10;72.73
56334;BME280;42240;53.626;55.886;2023-02-12T08:31:08;79057.00;;;-145.10;70.99
56334;BME280;42240;53.626;55.886;2023-02-12T08:32:42;78890.78;;;-145.10;72.63
56334;BME280;42240;53.626;55.886;2023-02-12T08:34:25;78855.16;;;-145.10;72.63
56334;BME280;42240;53.626;55.886;2023-02-12T08:36:11;79031.25;;;-145.10;71.47
56334;BME280;42240;53.626;55.886;2023-02-12T08:37:44;78884.84;;;-145.10;72.06
56334;BME280;42240;53.626;55.886;2023-02-12T08:39:17;78874.97;;;-145.10;72.40
56334;BME280;42240;53.626;55.886;2023-02-12T08:40:50;78878.91;;;-145.10;73.09
56334;BME280;42240;53.626;55.886;2023-02-12T08:42:23;79015.44;;;-145.10;72.29
56334;BME280;42240;53.626;55.886;2023-02-12T08:44:02;78964.00;;;-145.10;75.29
56334;BME280;42240;53.626;55.886;2023-02-12T08:45:35;78942.22;;;-145.10;77.24